Airfield :
LOGIN :

Register | Disclaimer

   EN    FR    IT 

 










Legend :    VFR   Marginal VFR   IFR   Intensive IFR   Very Intensive IFR
Visi :
Ceiling :
>= 8 km
>= 3000ft
5 to 8 km
1000 to 3000 ft
1500m to 5 km
500 to 1000 ft
800 to 1500m
200 to 500 ft
< 800m
< 200 ft
Symbols :   Thunderstorms  Fog  Heavy snow  Heavy precipitations  Wind > 20 kt
SIGMETs :     Misc.  Thunderstorms  Icing  Turbulence  Mountain Waves  Volcanic Ashes






- Airport Elevation : 459 ft
- IATA code : CER


LFRC - Cherbourg / Maupertus

CURRENT METAR :
  • 240530Z AUTO 13005KT 3700 BR BKN005 OVC016 04/03 Q1022 NOSIG

EXPIRED METARs :
  • 240500Z AUTO 13005KT 4600 BR FEW006 OVC017 04/03 Q1022
  • 240430Z AUTO 12004KT 5000 BR OVC017 05/03 Q1022
  • 240400Z AUTO 12007KT 5000 BR BKN007 OVC017 05/03 Q1022
  • 240330Z AUTO 12009KT 5000 BR BKN007 OVC015 05/04 Q1022
  • 240300Z AUTO 11007KT 5000 BR SCT007 OVC016 05/04 Q1023

TAF TAF LFRC
Valid from the 24 at 06:00 until the 24 at 15:00 UTC


240500Z 2406/2415 VRB05KT 9999 OVC017
TEMPO 2406/2409 3000 BR
PROB30
TEMPO 2406/2415 BKN005



MET'MAP, your aeronautical weather chart ! - Copyright ORBIFLY December 2007 - Disclaimer

ORBIFLY MET'MAP TEAM :

Programming & Development : Alexandra Zaïnal
Concept & original design : Baudouin d'Aumeries
Assistance for programming : Marc-Olivier Méhu
Technical & hardware support : Manuel Goepfert

Contact : metmap@orbifly.com




SOURCES & CREDITS :

   NOAA